Time;durP1;ratioP1;P1;durP2;ratioP2;P2;SDS_P1;SDS_P2;PMS_P1;PMS_P2;Temp;Humidity;BMP_temperature;BMP_pressure;BME280_temperature;BME280_humidity;BME280_pressure;Samples;Min_cycle;Max_cycle;Signal;HPM_P1;HPM_P2
2022/03/21 00:02:01;;;;;;;64.03;32.00;;;2.90;99.70;;;;;;6143262;23;20021;-92
2022/03/21 00:04:27;;;;;;;74.43;31.20;;;2.90;99.90;;;;;;6191782;23;20024;-92
2022/03/21 00:06:52;;;;;;;62.53;30.30;;;2.80;99.90;;;;;;6190175;23;20001;-93
2022/03/21 00:09:18;;;;;;;75.10;31.88;;;2.80;99.90;;;;;;6190068;23;20460;-93
2022/03/21 00:11:45;;;;;;;74.63;32.17;;;2.80;99.90;;;;;;6164017;23;20064;-92
2022/03/21 00:14:11;;;;;;;67.43;31.15;;;2.70;99.90;;;;;;6202196;23;20004;-91
2022/03/21 00:16:38;;;;;;;60.65;30.35;;;2.70;99.90;;;;;;6171866;23;20012;-92
2022/03/21 00:19:04;;;;;;;68.65;30.63;;;2.60;99.90;;;;;;6163672;23;20231;-92
2022/03/21 00:21:30;;;;;;;67.65;31.30;;;2.60;99.90;;;;;;6189530;23;20013;-93
2022/03/21 00:23:56;;;;;;;68.55;31.52;;;2.60;99.90;;;;;;6163598;23;20432;-94
2022/03/21 00:26:21;;;;;;;62.63;32.00;;;2.50;99.90;;;;;;6189940;23;20004;-93
2022/03/21 00:28:47;;;;;;;61.50;30.08;;;2.40;99.90;;;;;;6164269;23;20005;-92
2022/03/21 00:31:13;;;;;;;66.22;31.67;;;2.40;99.90;;;;;;6189769;23;20012;-93
2022/03/21 00:33:39;;;;;;;76.63;32.90;;;2.40;99.90;;;;;;6163227;23;20314;-92
2022/03/21 00:36:08;;;;;;;75.07;33.17;;;2.40;99.90;;;;;;6189365;23;20008;-93
2022/03/21 00:38:37;;;;;;;65.30;30.65;;;2.30;99.90;;;;;;6163750;23;20336;-94
2022/03/21 00:41:06;;;;;;;65.95;31.08;;;2.30;99.90;;;;;;6169906;23;20009;-92
2022/03/21 00:43:34;;;;;;;72.13;31.42;;;2.30;99.90;;;;;;6176913;23;20005;-93
2022/03/21 00:46:01;;;;;;;82.93;33.42;;;2.30;99.90;;;;;;6165951;23;20017;-95
2022/03/21 00:48:29;;;;;;;67.38;30.30;;;2.30;99.90;;;;;;6190604;23;20006;-93
2022/03/21 00:50:56;;;;;;;69.75;32.08;;;2.30;99.90;;;;;;6164087;23;20009;-93
2022/03/21 00:53:23;;;;;;;71.85;31.02;;;2.30;99.90;;;;;;6190545;23;20001;-93
2022/03/21 00:55:49;;;;;;;65.60;29.23;;;2.20;99.90;;;;;;6163858;23;20009;-93
2022/03/21 00:58:15;;;;;;;65.68;30.15;;;2.20;99.90;;;;;;6163342;23;20091;-94
2022/03/21 01:00:42;;;;;;;63.92;30.80;;;2.20;99.90;;;;;;6163435;23;20345;-93
2022/03/21 01:03:08;;;;;;;68.45;30.63;;;2.20;99.90;;;;;;6189532;23;20354;-94
2022/03/21 01:05:34;;;;;;;70.40;31.08;;;2.10;99.90;;;;;;6163688;23;20024;-93
2022/03/21 01:08:02;;;;;;;69.78;32.33;;;2.10;99.90;;;;;;6164215;23;20005;-93
2022/03/21 01:10:28;;;;;;;67.32;30.83;;;2.10;99.90;;;;;;6166937;23;20044;-93
2022/03/21 01:12:55;;;;;;;68.35;31.90;;;2.00;99.90;;;;;;6169900;23;20020;-92
2022/03/21 01:15:23;;;;;;;71.57;33.08;;;2.00;99.90;;;;;;6183516;23;20013;-95
2022/03/21 01:17:52;;;;;;;64.50;31.67;;;2.10;99.90;;;;;;6212399;23;20001;-93
2022/03/21 01:20:20;;;;;;;71.88;32.45;;;2.00;99.90;;;;;;6195999;23;20072;-92
2022/03/21 01:22:47;;;;;;;76.60;33.67;;;2.10;99.90;;;;;;6165742;23;20009;-93
2022/03/21 01:25:13;;;;;;;70.43;31.95;;;2.00;99.90;;;;;;6190564;23;20013;-92
2022/03/21 01:27:40;;;;;;;71.80;34.20;;;2.00;99.90;;;;;;6165411;23;20027;-92
2022/03/21 01:30:08;;;;;;;76.35;32.63;;;2.00;99.90;;;;;;6180979;23;19993;-92
2022/03/21 01:32:34;;;;;;;74.32;32.10;;;2.00;99.90;;;;;;6179435;23;20020;-92
2022/03/21 01:35:01;;;;;;;71.43;31.33;;;2.00;99.90;;;;;;6203027;23;20012;-90
2022/03/21 01:37:27;;;;;;;69.65;33.45;;;2.00;99.90;;;;;;6198745;23;20073;-92
2022/03/21 01:39:53;;;;;;;68.88;32.33;;;1.90;99.90;;;;;;6197698;23;20037;-91
2022/03/21 01:42:19;;;;;;;67.82;31.00;;;1.90;99.90;;;;;;6192348;23;20012;-92
2022/03/21 01:44:45;;;;;;;69.30;32.20;;;1.90;99.90;;;;;;6163065;23;20009;-92
2022/03/21 01:47:10;;;;;;;62.53;29.73;;;1.80;99.90;;;;;;6138008;23;20391;-92
2022/03/21 01:49:38;;;;;;;57.60;29.45;;;1.80;99.90;;;;;;6162217;23;19997;-91
2022/03/21 01:52:04;;;;;;;65.07;31.67;;;1.80;99.90;;;;;;6190567;23;20425;-91
2022/03/21 01:57:34;;;;;;;67.65;30.13;;;1.80;99.90;;;;;;6119814;23;20011;-91
2022/03/21 02:00:00;;;;;;;73.22;31.48;;;1.70;99.90;;;;;;6101393;23;20037;-91
2022/03/21 02:02:27;;;;;;;70.97;32.28;;;1.70;99.90;;;;;;6075406;23;20018;-92
2022/03/21 02:04:53;;;;;;;73.68;31.65;;;1.60;99.90;;;;;;6077695;23;20086;-92
2022/03/21 02:07:19;;;;;;;71.75;30.80;;;1.50;99.90;;;;;;6087331;23;20010;-91
2022/03/21 02:09:45;;;;;;;72.60;31.17;;;1.50;99.90;;;;;;6077866;23;20049;-92
2022/03/21 02:12:11;;;;;;;73.53;32.97;;;1.50;99.90;;;;;;6075295;23;20003;-92
2022/03/21 02:14:40;;;;;;;74.28;31.73;;;1.50;99.90;;;;;;6075932;23;20103;-91
2022/03/21 02:17:06;;;;;;;66.30;31.63;;;1.50;99.90;;;;;;6076740;23;20010;-93
2022/03/21 02:19:34;;;;;;;72.97;31.92;;;1.40;99.90;;;;;;6076783;23;20401;-90
2022/03/21 02:22:11;;;;;;;77.07;31.33;;;1.40;99.90;;;;;;6076451;23;20015;-91
2022/03/21 02:24:42;;;;;;;72.47;31.95;;;1.30;99.90;;;;;;6076496;23;20025;-91
2022/03/21 02:27:10;;;;;;;68.88;32.88;;;1.30;99.90;;;;;;6079135;23;20014;-91
2022/03/21 02:29:37;;;;;;;72.75;32.92;;;1.20;99.90;;;;;;6164703;23;20005;-93
2022/03/21 02:32:05;;;;;;;73.80;33.28;;;1.20;99.90;;;;;;6164509;23;20424;-91
2022/03/21 02:34:38;;;;;;;64.30;30.50;;;1.20;99.90;;;;;;6165182;23;20036;-91
2022/03/21 02:37:07;;;;;;;73.00;32.63;;;1.20;99.90;;;;;;6164576;23;20005;-91
2022/03/21 02:39:36;;;;;;;69.20;32.10;;;1.20;99.90;;;;;;6164819;23;20012;-90
2022/03/21 02:42:04;;;;;;;73.20;30.33;;;1.20;99.90;;;;;;6164180;23;20005;-91
2022/03/21 02:44:38;;;;;;;68.75;32.25;;;1.10;99.90;;;;;;6204650;23;20016;-91
2022/03/21 02:47:06;;;;;;;68.00;31.17;;;1.10;99.90;;;;;;6156215;23;20013;-90
2022/03/21 02:49:32;;;;;;;64.25;31.75;;;1.10;99.90;;;;;;6180337;23;20005;-92
2022/03/21 02:52:00;;;;;;;74.57;31.75;;;1.10;99.90;;;;;;6206605;23;20005;-91
2022/03/21 02:54:26;;;;;;;74.97;32.53;;;1.00;99.90;;;;;;6181012;23;20063;-90
2022/03/21 02:56:54;;;;;;;71.88;32.95;;;1.00;99.90;;;;;;6206965;23;20341;-90
2022/03/21 02:59:20;;;;;;;74.75;32.15;;;1.00;99.90;;;;;;6206415;23;19993;-90
2022/03/21 03:01:45;;;;;;;69.85;30.48;;;1.00;99.90;;;;;;6203567;23;20096;-90
2022/03/21 03:04:11;;;;;;;68.97;31.38;;;1.00;99.90;;;;;;6180229;23;20001;-91
2022/03/21 03:06:40;;;;;;;74.43;31.60;;;1.00;99.90;;;;;;6185626;23;20016;-92
2022/03/21 03:09:09;;;;;;;75.40;32.28;;;1.00;99.90;;;;;;6211490;23;19989;-89
2022/03/21 03:11:38;;;;;;;66.90;31.25;;;0.90;99.90;;;;;;6210492;23;20017;-93
2022/03/21 03:14:05;;;;;;;69.60;31.80;;;0.90;99.90;;;;;;6194002;23;20020;-93
2022/03/21 03:16:31;;;;;;;76.38;31.42;;;0.80;99.90;;;;;;6165575;23;20001;-94
2022/03/21 03:18:58;;;;;;;70.97;32.53;;;0.80;99.90;;;;;;6190724;23;20008;-94
2022/03/21 03:21:26;;;;;;;65.85;32.08;;;0.80;99.90;;;;;;6165477;23;20008;-93
2022/03/21 03:23:54;;;;;;;72.07;33.50;;;0.80;99.90;;;;;;6164731;23;20436;-93
2022/03/21 03:26:19;;;;;;;73.80;30.92;;;0.80;99.90;;;;;;6190464;23;20124;-93
2022/03/21 03:28:46;;;;;;;80.43;33.42;;;0.80;99.90;;;;;;6168023;23;20009;-93
2022/03/21 03:31:14;;;;;;;70.75;32.35;;;0.80;99.90;;;;;;6165033;23;20005;-93
2022/03/21 03:33:41;;;;;;;72.88;32.97;;;0.80;99.90;;;;;;6163921;23;20071;-93
2022/03/21 03:36:08;;;;;;;66.28;32.50;;;0.70;99.90;;;;;;6190071;23;20005;-92
2022/03/21 03:38:34;;;;;;;71.93;33.30;;;0.70;99.90;;;;;;6177220;23;20065;-92
2022/03/21 03:40:59;;;;;;;69.82;33.65;;;0.70;99.90;;;;;;6170551;23;20013;-92
2022/03/21 03:43:25;;;;;;;70.55;32.55;;;0.70;99.90;;;;;;6190184;23;20004;-92
2022/03/21 03:45:52;;;;;;;70.88;33.55;;;0.70;99.90;;;;;;6190164;23;20013;-91
2022/03/21 03:48:21;;;;;;;65.45;32.25;;;0.70;99.90;;;;;;6190238;23;19998;-93
2022/03/21 03:50:47;;;;;;;70.50;33.72;;;0.60;99.90;;;;;;6163403;23;20015;-93
2022/03/21 03:53:14;;;;;;;88.40;33.30;;;0.60;99.90;;;;;;6167332;23;20000;-92
2022/03/21 03:55:43;;;;;;;65.78;31.27;;;0.60;99.90;;;;;;6171434;23;20013;-91
2022/03/21 03:58:09;;;;;;;65.68;31.33;;;0.60;99.90;;;;;;6141289;23;20097;-91
2022/03/21 04:00:35;;;;;;;67.38;31.55;;;0.60;99.90;;;;;;6163565;23;20013;-93
2022/03/21 04:05:49;;;;;;;67.82;31.00;;;0.60;99.90;;;;;;6190501;23;20085;-93
2022/03/21 04:08:15;;;;;;;72.40;32.03;;;0.50;99.90;;;;;;6165557;23;20005;-95
2022/03/21 04:10:40;;;;;;;61.67;31.00;;;0.50;99.90;;;;;;6166651;23;20172;-93
2022/03/21 04:13:06;;;;;;;73.88;31.77;;;0.50;99.90;;;;;;6167324;23;20008;-94
2022/03/21 04:15:34;;;;;;;72.82;33.13;;;0.40;99.90;;;;;;6169319;23;20005;-93
2022/03/21 04:18:07;;;;;;;69.15;31.90;;;0.40;99.90;;;;;;6167190;23;19997;-93
2022/03/21 04:20:36;;;;;;;75.65;33.55;;;0.40;99.90;;;;;;6173322;23;20020;-93
2022/03/21 04:23:02;;;;;;;67.95;32.55;;;0.30;99.90;;;;;;6149469;23;19993;-93
2022/03/21 04:25:29;;;;;;;76.90;34.13;;;0.30;99.90;;;;;;6206924;23;20017;-92
2022/03/21 04:27:55;;;;;;;81.88;33.47;;;0.30;99.90;;;;;;6198663;23;20015;-93
2022/03/21 04:30:22;;;;;;;74.60;32.33;;;0.30;99.90;;;;;;6201985;23;20080;-93
2022/03/21 04:32:48;;;;;;;71.97;33.47;;;0.30;99.90;;;;;;6182905;23;20009;-94
2022/03/21 04:35:15;;;;;;;72.50;32.95;;;0.20;99.90;;;;;;6186535;23;19997;-95
2022/03/21 04:37:41;;;;;;;73.32;33.95;;;0.20;99.90;;;;;;6212812;23;20045;-93
2022/03/21 04:40:08;;;;;;;85.75;33.97;;;0.30;99.90;;;;;;6185111;23;20069;-93
2022/03/21 04:42:36;;;;;;;75.72;33.85;;;0.20;99.90;;;;;;6183694;23;20001;-94
2022/03/21 04:45:03;;;;;;;77.95;32.70;;;0.20;99.90;;;;;;6184067;23;20020;-93
2022/03/21 04:47:30;;;;;;;84.25;34.20;;;0.20;99.90;;;;;;6175224;23;20012;-94
2022/03/21 04:49:56;;;;;;;76.57;32.20;;;0.20;99.90;;;;;;6199799;23;20126;-93
2022/03/21 04:52:21;;;;;;;77.20;33.13;;;0.20;99.90;;;;;;6172963;23;20135;-93
2022/03/21 04:54:48;;;;;;;74.82;32.63;;;0.20;99.90;;;;;;6200091;23;20008;-94
2022/03/21 04:57:14;;;;;;;77.53;32.40;;;0.10;99.90;;;;;;6196186;23;20096;-94
2022/03/21 04:59:39;;;;;;;79.53;33.88;;;0.10;99.90;;;;;;6169302;23;20040;-94
2022/03/21 05:02:06;;;;;;;80.22;33.22;;;0.00;99.90;;;;;;6167761;23;20071;-93
2022/03/21 05:04:34;;;;;;;78.95;34.25;;;0.00;99.90;;;;;;6163315;23;20009;-92
2022/03/21 05:07:00;;;;;;;89.63;35.78;;;0.00;99.90;;;;;;6164999;23;20017;-93
2022/03/21 05:09:26;;;;;;;78.72;34.13;;;-0.10;99.90;;;;;;6165332;23;20008;-92
2022/03/21 05:11:52;;;;;;;85.72;33.65;;;-0.10;99.90;;;;;;6174791;23;19985;-94
2022/03/21 05:14:18;;;;;;;68.60;29.92;;;-0.20;99.90;;;;;;6170916;23;20060;-94
2022/03/21 05:16:48;;;;;;;67.50;29.63;;;-0.20;99.90;;;;;;6143195;23;20005;-93
2022/03/21 05:19:14;;;;;;;76.15;32.95;;;-0.20;99.90;;;;;;6146401;23;20432;-94
2022/03/21 05:21:40;;;;;;;75.45;32.92;;;-0.20;99.90;;;;;;6179650;23;20008;-92
2022/03/21 05:32:20;;;;;;;75.10;32.47;;;-0.30;99.90;;;;;;6192355;23;20047;-93
2022/03/21 05:37:30;;;;;;;66.60;30.48;;;-0.30;99.90;;;;;;6205880;23;20031;-93
2022/03/21 05:42:41;;;;;;;69.22;30.13;;;-0.40;99.90;;;;;;6191456;23;20012;-94
2022/03/21 05:45:07;;;;;;;71.75;31.98;;;-0.40;99.90;;;;;;6193020;23;20013;-93
2022/03/21 05:48:50;;;;;;;82.18;33.67;;;-0.40;99.90;;;;;;6169576;23;20088;-93
2022/03/21 05:50:18;;;;;;;74.75;33.15;;;-0.40;99.90;;;;;;6195586;23;20383;-92
2022/03/21 05:52:45;;;;;;;82.55;34.03;;;-0.50;99.90;;;;;;6169079;23;20076;-93
2022/03/21 05:55:12;;;;;;;79.28;32.97;;;-0.50;99.90;;;;;;6169737;23;20005;-93
2022/03/21 05:57:38;;;;;;;80.78;32.03;;;-0.50;99.90;;;;;;6195402;23;20041;-94
2022/03/21 06:03:25;;;;;;;74.97;32.70;;;-0.50;99.90;;;;;;6199457;23;20016;-93
2022/03/21 06:05:53;;;;;;;72.07;33.00;;;-0.60;99.90;;;;;;6191594;23;20017;-93
2022/03/21 06:08:20;;;;;;;75.10;31.55;;;-0.60;99.90;;;;;;6165581;23;20426;-92
2022/03/21 06:10:48;;;;;;;86.82;33.83;;;-0.60;99.90;;;;;;6164568;23;20015;-93
2022/03/21 06:13:16;;;;;;;85.63;35.00;;;-0.60;99.90;;;;;;6163966;23;20063;-92
2022/03/21 06:15:42;;;;;;;79.63;35.55;;;-0.60;99.90;;;;;;6165424;23;20009;-94
2022/03/21 06:18:12;;;;;;;86.28;33.95;;;-0.60;99.90;;;;;;6165933;23;20005;-92
2022/03/21 06:20:42;;;;;;;89.80;35.88;;;-0.60;99.90;;;;;;6179358;23;20020;-93
2022/03/21 06:23:08;;;;;;;105.82;39.28;;;-0.60;99.90;;;;;;6178577;23;20036;-92
2022/03/21 06:25:36;;;;;;;106.10;38.28;;;-0.60;99.90;;;;;;6168968;23;20005;-94
2022/03/21 06:28:03;;;;;;;124.28;40.58;;;-0.70;99.90;;;;;;6169543;23;20016;-93
2022/03/21 06:30:33;;;;;;;141.52;39.65;;;-0.70;99.90;;;;;;6169060;23;20012;-93
2022/03/21 06:33:00;;;;;;;108.25;39.75;;;-0.70;99.90;;;;;;6173716;23;20333;-94
2022/03/21 06:35:26;;;;;;;125.40;38.90;;;-0.70;99.90;;;;;;6177233;23;20005;-92
2022/03/21 06:37:53;;;;;;;119.63;39.83;;;-0.70;99.90;;;;;;6177803;23;20013;-92
2022/03/21 06:40:18;;;;;;;125.70;40.33;;;-0.70;99.90;;;;;;6203700;23;20002;-92
2022/03/21 06:42:44;;;;;;;113.25;40.42;;;-0.70;99.90;;;;;;6191141;23;20032;-92
2022/03/21 06:45:10;;;;;;;98.93;39.88;;;-0.80;99.90;;;;;;6197481;23;20477;-93
2022/03/21 06:47:36;;;;;;;111.28;39.50;;;-0.70;99.90;;;;;;6201705;23;20272;-93
2022/03/21 06:50:06;;;;;;;100.40;41.78;;;-0.70;99.90;;;;;;6201651;23;20021;-93
2022/03/21 06:52:35;;;;;;;104.82;40.92;;;-0.80;99.90;;;;;;6177524;23;20015;-93
2022/03/21 06:55:01;;;;;;;120.75;39.85;;;-0.70;99.90;;;;;;6168731;23;20013;-93
2022/03/21 06:57:28;;;;;;;206.25;40.85;;;-0.70;99.90;;;;;;6192463;23;20345;-92
2022/03/21 06:59:53;;;;;;;108.85;38.42;;;-0.70;99.90;;;;;;6192670;23;20017;-93
2022/03/21 07:02:20;;;;;;;110.97;39.13;;;-0.70;99.90;;;;;;6200047;23;20013;-92
2022/03/21 07:04:45;;;;;;;123.85;39.08;;;-0.70;99.90;;;;;;6187028;23;20017;-94
2022/03/21 07:07:12;;;;;;;110.35;37.78;;;-0.70;99.90;;;;;;6176342;23;20012;-92
2022/03/21 07:09:38;;;;;;;107.93;40.05;;;-0.70;99.90;;;;;;6173276;23;20016;-92
2022/03/21 07:12:04;;;;;;;121.88;39.22;;;-0.70;99.90;;;;;;6166948;23;20009;-93
2022/03/21 07:14:30;;;;;;;110.82;39.78;;;-0.70;99.90;;;;;;6151247;23;20020;-94
2022/03/21 07:16:56;;;;;;;119.22;39.28;;;-0.70;99.90;;;;;;6169682;23;20009;-94
2022/03/21 07:19:22;;;;;;;114.18;41.70;;;-0.70;99.90;;;;;;6169041;23;20001;-94
2022/03/21 07:21:48;;;;;;;118.07;40.83;;;-0.70;99.90;;;;;;6166358;23;20013;-93
2022/03/21 07:24:14;;;;;;;151.98;39.95;;;-0.70;99.90;;;;;;6196365;23;20004;-93
2022/03/21 07:26:41;;;;;;;153.30;40.03;;;-0.70;99.90;;;;;;6179509;23;20119;-94
2022/03/21 07:29:08;;;;;;;116.05;40.83;;;-0.60;99.90;;;;;;6187077;23;20000;-93
2022/03/21 07:31:34;;;;;;;180.63;43.10;;;-0.60;99.90;;;;;;6188817;23;20025;-95
2022/03/21 07:34:01;;;;;;;108.57;38.75;;;-0.60;99.90;;;;;;6213917;23;20008;-93
2022/03/21 07:36:29;;;;;;;112.38;37.85;;;-0.60;99.90;;;;;;6212740;23;20016;-93
2022/03/21 07:38:57;;;;;;;89.35;36.88;;;-0.60;99.90;;;;;;6201997;23;19997;-94
2022/03/21 07:41:26;;;;;;;105.68;39.05;;;-0.50;99.90;;;;;;6179343;23;20009;-94
2022/03/21 07:43:57;;;;;;;96.45;39.78;;;-0.50;99.90;;;;;;6173718;23;20452;-93
2022/03/21 07:49:11;;;;;;;120.30;38.20;;;-0.50;99.90;;;;;;6200454;23;20037;-94
2022/03/21 07:51:38;;;;;;;88.88;36.20;;;-0.40;99.90;;;;;;6202172;23;19989;-94
2022/03/21 07:54:03;;;;;;;202.15;39.08;;;-0.40;99.90;;;;;;6204559;23;20041;-93
2022/03/21 07:56:31;;;;;;;98.65;39.63;;;-0.30;99.90;;;;;;6196616;23;19997;-94
2022/03/21 07:59:01;;;;;;;133.05;37.08;;;-0.30;99.90;;;;;;6200995;23;20425;-94
2022/03/21 08:01:29;;;;;;;84.70;35.78;;;-0.30;99.90;;;;;;6170991;23;20437;-93
2022/03/21 08:03:57;;;;;;;76.55;35.25;;;-0.20;99.90;;;;;;6182620;23;20009;-93
2022/03/21 08:06:24;;;;;;;89.40;35.15;;;-0.20;99.90;;;;;;6183522;23;20053;-94
2022/03/21 08:08:55;;;;;;;100.68;34.83;;;-0.20;99.90;;;;;;6175242;23;20009;-93
2022/03/21 08:11:22;;;;;;;85.50;35.30;;;-0.10;99.90;;;;;;6169361;23;20039;-94
2022/03/21 08:13:49;;;;;;;85.50;35.70;;;-0.10;99.90;;;;;;6195562;23;20413;-94
2022/03/21 08:16:20;;;;;;;78.00;37.60;;;0.00;99.90;;;;;;6194991;23;20005;-94
2022/03/21 08:18:52;;;;;;;95.60;36.40;;;0.00;99.90;;;;;;6205635;23;20008;-94
2022/03/21 08:21:19;;;;;;;89.47;37.00;;;0.10;99.90;;;;;;6179558;23;20060;-93
2022/03/21 08:23:49;;;;;;;79.45;36.78;;;0.10;99.90;;;;;;6180249;23;19993;-93
2022/03/21 08:26:16;;;;;;;77.78;35.92;;;0.20;99.90;;;;;;6202077;23;20078;-94
2022/03/21 08:28:45;;;;;;;78.38;37.53;;;0.30;99.90;;;;;;6203276;23;20011;-94
2022/03/21 08:31:13;;;;;;;74.20;34.97;;;0.40;99.90;;;;;;6186240;23;20008;-93
2022/03/21 08:33:40;;;;;;;74.03;35.42;;;0.40;99.90;;;;;;6206779;23;20008;-92
2022/03/21 08:36:06;;;;;;;69.20;34.35;;;0.50;99.90;;;;;;6177605;23;20028;-93
2022/03/21 08:38:32;;;;;;;74.03;35.78;;;0.60;99.90;;;;;;6211487;23;20057;-94
2022/03/21 08:41:00;;;;;;;73.15;35.97;;;0.60;99.90;;;;;;6213139;23;20013;-95
2022/03/21 08:43:27;;;;;;;75.00;35.83;;;0.70;99.90;;;;;;6187180;23;20069;-94
2022/03/21 08:45:55;;;;;;;78.60;37.85;;;0.80;99.90;;;;;;6213166;23;20527;-96
2022/03/21 08:49:23;;;;;;;73.95;36.55;;;0.80;99.90;;;;;;6211743;23;20031;-94
2022/03/21 08:53:48;;;;;;;76.60;36.28;;;1.00;99.90;;;;;;6242407;22;20019;-94
2022/03/21 08:56:14;;;;;;;75.32;36.92;;;1.10;99.90;;;;;;6243443;22;20011;-94
2022/03/21 09:01:32;;;;;;;78.13;39.17;;;1.30;99.90;;;;;;6205152;22;20013;-96
2022/03/21 09:04:02;;;;;;;82.78;39.95;;;1.40;99.90;;;;;;6211751;23;19997;-95
2022/03/21 09:06:29;;;;;;;83.40;39.55;;;1.40;99.90;;;;;;6187248;23;20025;-96
2022/03/21 09:08:58;;;;;;;76.20;37.20;;;1.50;99.90;;;;;;6213085;23;19996;-94
2022/03/21 09:11:26;;;;;;;;;;;1.70;99.90;;;;;;6187728;23;20012;-93
2022/03/21 09:13:52;;;;;;;77.18;35.95;;;1.80;99.90;;;;;;6212243;23;19896;-94
2022/03/21 09:16:19;;;;;;;80.72;38.13;;;2.00;99.90;;;;;;6211373;23;20044;-94
2022/03/21 09:18:45;;;;;;;92.00;40.10;;;2.10;99.90;;;;;;6210704;23;20009;-93
2022/03/21 09:21:12;;;;;;;86.65;40.92;;;2.20;99.90;;;;;;6174645;23;20036;-93
2022/03/21 09:23:39;;;;;;;84.38;38.50;;;2.40;99.90;;;;;;6177526;23;20008;-92
2022/03/21 09:26:10;;;;;;;89.57;43.28;;;2.50;99.90;;;;;;6197590;23;20072;-93
2022/03/21 09:28:43;;;;;;;84.05;41.83;;;2.60;99.90;;;;;;6202599;23;20012;-95
2022/03/21 09:31:21;;;;;;;89.20;42.55;;;2.80;99.90;;;;;;6183338;23;20044;-94
2022/03/21 09:33:52;;;;;;;87.78;39.45;;;3.00;99.90;;;;;;6181750;23;19997;-94
2022/03/21 09:41:32;;;;;;;93.47;41.90;;;3.70;99.90;;;;;;6213110;23;20013;-95
2022/03/21 09:44:01;;;;;;;89.25;42.22;;;4.00;99.90;;;;;;6209113;23;20013;-94
2022/03/21 09:46:28;;;;;;;88.72;40.95;;;4.30;99.90;;;;;;6212168;23;20052;-94
2022/03/21 09:48:56;;;;;;;78.28;39.70;;;4.60;99.90;;;;;;6212504;23;20036;-95
2022/03/21 09:51:25;;;;;;;80.47;40.08;;;4.90;99.90;;;;;;6161946;23;20021;-93
2022/03/21 09:53:52;;;;;;;88.75;39.80;;;5.10;99.90;;;;;;6179653;23;20052;-95
2022/03/21 09:56:20;;;;;;;79.70;39.50;;;5.40;99.90;;;;;;6155188;23;20020;-93
2022/03/21 09:58:47;;;;;;;73.60;37.20;;;5.70;99.90;;;;;;6144760;23;20001;-93
2022/03/21 10:01:14;;;;;;;78.53;39.95;;;6.10;99.90;;;;;;6164422;23;19997;-94
2022/03/21 10:03:41;;;;;;;73.78;36.90;;;6.40;99.90;;;;;;6167322;23;19998;-95
2022/03/21 10:06:43;;;;;;;65.53;32.78;;;6.80;99.90;;;;;;6141998;23;20001;-94
2022/03/21 10:09:20;;;;;;;68.25;32.97;;;7.10;99.90;;;;;;6145713;23;20065;-95
2022/03/21 10:11:57;;;;;;;60.63;30.67;;;7.70;99.90;;;;;;6170974;23;20048;-94
2022/03/21 10:14:28;;;;;;;56.53;30.08;;;8.00;99.90;;;;;;6152362;23;20006;-94
2022/03/21 10:17:09;;;;;;;54.42;29.08;;;8.40;99.90;;;;;;6178262;23;20013;-95
2022/03/21 10:19:54;;;;;;;60.72;33.40;;;8.70;99.90;;;;;;6181774;23;19990;-96
2022/03/21 10:22:22;;;;;;;54.20;30.70;;;9.10;99.90;;;;;;6156381;23;20001;-96
2022/03/21 10:24:52;;;;;;;50.30;28.02;;;9.40;99.90;;;;;;6180516;23;20005;-96
2022/03/21 10:27:40;;;;;;;52.80;29.17;;;9.70;99.90;;;;;;6204144;22;20017;-96
2022/03/21 10:30:15;;;;;;;51.67;27.45;;;10.00;99.90;;;;;;6212883;23;19997;-94
2022/03/21 10:32:50;;;;;;;52.35;28.73;;;10.30;99.90;;;;;;6209852;22;20033;-95
2022/03/21 10:35:26;;;;;;;50.33;27.90;;;10.60;99.90;;;;;;6189182;23;20047;-95
2022/03/21 10:38:00;;;;;;;48.05;27.55;;;10.80;99.90;;;;;;6214395;23;20053;-95
2022/03/21 10:40:30;;;;;;;50.42;26.98;;;11.00;98.90;;;;;;6187369;23;20004;-96
2022/03/21 10:42:59;;;;;;;45.67;27.00;;;11.30;97.50;;;;;;6211020;23;19985;-96
2022/03/21 10:45:42;;;;;;;46.88;24.60;;;11.50;96.10;;;;;;6206405;23;20075;-94
2022/03/21 10:48:15;;;;;;;55.97;26.75;;;11.70;94.60;;;;;;6182817;23;20000;-95
2022/03/21 10:53:27;;;;;;;43.97;24.42;;;12.10;92.90;;;;;;6210717;22;20115;-96
2022/03/21 10:56:08;;;;;;;44.80;23.83;;;12.30;91.40;;;;;;6183397;23;20001;-95
2022/03/21 11:01:15;;;;;;;38.25;20.38;;;12.60;89.10;;;;;;6210829;22;20051;-96
2022/03/21 11:03:49;;;;;;;38.53;20.83;;;12.70;86.70;;;;;;6183249;23;20024;-95
2022/03/21 11:06:15;;;;;;;35.53;19.77;;;12.90;83.80;;;;;;6178363;23;20013;-94
2022/03/21 11:08:41;;;;;;;33.50;17.13;;;13.00;81.80;;;;;;6191215;23;20073;-95
2022/03/21 11:11:09;;;;;;;34.70;19.65;;;13.00;79.00;;;;;;6192840;23;20005;-94
2022/03/21 11:13:37;;;;;;;36.72;18.90;;;13.10;77.10;;;;;;6164186;23;19998;-94
2022/03/21 11:16:03;;;;;;;31.70;18.30;;;13.10;73.50;;;;;;6193239;23;20020;-96
2022/03/21 11:18:31;;;;;;;36.42;19.92;;;13.00;73.20;;;;;;6166394;23;20001;-95
2022/03/21 11:20:58;;;;;;;34.63;19.23;;;13.00;72.90;;;;;;6190546;23;20044;-93
2022/03/21 11:23:25;;;;;;;39.00;19.92;;;13.10;73.00;;;;;;6192296;23;20556;-95
2022/03/21 11:26:25;;;;;;;33.88;19.38;;;13.30;72.40;;;;;;6167202;23;20021;-94
2022/03/21 11:29:29;;;;;;;30.70;19.05;;;13.30;70.90;;;;;;6192603;23;20017;-93
2022/03/21 11:32:06;;;;;;;33.65;19.48;;;13.20;70.50;;;;;;6191290;23;20060;-94
2022/03/21 11:34:55;;;;;;;32.42;19.30;;;13.10;70.50;;;;;;6192455;23;20117;-92
2022/03/21 11:37:29;;;;;;;34.97;20.15;;;13.10;70.30;;;;;;6165231;23;20079;-95
2022/03/21 11:40:23;;;;;;;32.35;18.45;;;13.00;68.00;;;;;;6192466;23;20012;-95
2022/03/21 11:42:49;;;;;;;29.40;18.17;;;13.00;68.50;;;;;;6188853;23;20005;-94
2022/03/21 11:45:31;;;;;;;35.88;18.27;;;13.00;68.00;;;;;;6161426;23;20013;-93
2022/03/21 11:47:58;;;;;;;36.67;20.08;;;13.10;68.20;;;;;;6191956;22;19994;-93
2022/03/21 11:50:28;;;;;;;36.20;20.60;;;13.30;67.80;;;;;;6206870;23;20027;-96
2022/03/21 11:53:08;;;;;;;33.67;18.90;;;13.40;68.10;;;;;;6182047;23;19989;-95
2022/03/21 11:55:44;;;;;;;26.70;16.10;;;13.70;68.30;;;;;;6186715;23;20009;-94
2022/03/21 12:01:14;;;;;;;32.42;16.50;;;14.30;64.80;;;;;;6183560;22;20020;-93
2022/03/21 12:09:12;;;;;;;31.92;15.52;;;14.90;62.60;;;;;;6242111;23;20031;-96
2022/03/21 12:14:29;;;;;;;26.85;15.63;;;15.40;61.80;;;;;;6192475;22;20025;-95
2022/03/21 12:25:00;;;;;;;32.95;17.15;;;15.80;58.80;;;;;;6237345;22;20149;-96
2022/03/21 12:27:41;;;;;;;26.80;14.60;;;15.70;58.70;;;;;;6220207;23;20008;-96
2022/03/21 12:30:30;;;;;;;33.75;16.30;;;15.60;58.60;;;;;;6143432;23;20072;-96
2022/03/21 12:32:58;;;;;;;29.83;16.75;;;15.50;58.50;;;;;;6158986;23;20030;-96
2022/03/21 12:40:58;;;;;;;26.98;16.90;;;15.70;57.70;;;;;;6262594;22;20020;-96
2022/03/21 12:43:46;;;;;;;30.83;17.58;;;15.60;57.20;;;;;;6227439;23;19996;-95
2022/03/21 12:46:18;;;;;;;29.95;16.20;;;15.60;57.60;;;;;;6229592;23;20008;-94
2022/03/21 12:48:47;;;;;;;31.40;16.25;;;15.50;57.60;;;;;;6267931;22;20008;-95
2022/03/21 12:51:23;;;;;;;27.42;14.32;;;15.30;57.40;;;;;;6236415;23;20008;-95
2022/03/21 12:53:50;;;;;;;29.88;16.15;;;15.00;57.10;;;;;;6260941;23;19996;-96
2022/03/21 12:56:19;;;;;;;25.77;14.85;;;14.60;57.40;;;;;;6236656;23;20023;-96
2022/03/21 12:58:48;;;;;;;29.38;16.83;;;14.30;57.90;;;;;;6240507;23;20011;-93
2022/03/21 13:01:18;;;;;;;26.05;14.23;;;14.10;58.20;;;;;;6262239;23;20080;-96
2022/03/21 13:03:45;;;;;;;24.42;13.80;;;13.80;58.20;;;;;;6245890;23;20053;-95
2022/03/21 13:11:50;;;;;;;31.15;14.07;;;13.20;58.70;;;;;;6269859;22;20159;-96
2022/03/21 13:14:20;;;;;;;25.63;14.30;;;13.00;58.90;;;;;;6247685;22;20000;-95
2022/03/21 13:16:47;;;;;;;22.65;12.30;;;12.90;59.10;;;;;;6221169;22;19996;-95
2022/03/21 13:21:57;;;;;;;26.52;12.18;;;12.70;59.00;;;;;;6261586;22;20045;-95
2022/03/21 13:24:43;;;;;;;22.90;12.80;;;12.60;58.90;;;;;;6193473;22;20094;-95
2022/03/21 13:32:45;;;;;;;21.77;11.95;;;12.30;58.30;;;;;;6244495;22;20051;-96
2022/03/21 13:35:19;;;;;;;28.27;12.15;;;12.20;58.10;;;;;;6244447;23;20080;-96
2022/03/21 13:43:20;;;;;;;22.30;12.35;;;11.90;58.10;;;;;;6242882;22;20353;-93
2022/03/21 13:45:49;;;;;;;22.70;12.00;;;11.90;58.30;;;;;;6242956;23;20120;-96
2022/03/21 13:48:38;;;;;;;27.15;12.73;;;11.90;58.70;;;;;;6212716;23;20009;-95
2022/03/21 13:51:07;;;;;;;23.52;11.65;;;12.00;59.00;;;;;;6242646;23;20005;-95
2022/03/21 13:53:39;;;;;;;29.13;14.30;;;12.10;59.00;;;;;;6241247;23;19993;-95
2022/03/21 13:56:08;;;;;;;25.90;14.05;;;12.10;59.10;;;;;;6214929;23;20032;-95
2022/03/21 13:58:36;;;;;;;25.50;14.18;;;12.10;59.40;;;;;;6211729;22;20111;-93
2022/03/21 14:01:24;;;;;;;26.05;14.90;;;12.10;59.40;;;;;;6243160;22;20004;-96
2022/03/21 14:03:55;;;;;;;24.85;13.40;;;12.00;59.70;;;;;;6272631;22;20015;-96
2022/03/21 14:06:22;;;;;;;26.52;13.70;;;12.00;59.70;;;;;;6218735;22;20009;-96